Harrisburg, North Carolina
Current Conditions -  °F | °C
As of 3:50 PM on Sunday 23 Nov 2014 (Local Time) from KJQF Reporting Station
Heavy Rain Heavy Rain  
Wind Chill: 52°   Ceiling: 500
Heat Index: 52°   Visibility: 2mi
Dew Point: 52°   Wind: 3mph
Humidity: 100%   Direction: 80°E
Pressure: 29.97"   Gusts: NA
Location:  35.32°N, 80.66°W
Report Text: KJQF 232050Z 08003KT 2SM +RA BR OVC005 11/11 A2997
Loading
Personal Weather Stations






























Interactive Weather Map New forecast layout! Learn more

10-Day Weather Forecast

Advertisements
Track Severe Weather on mobile